createdAt,value
2019-06-20T01:20:43.755Z,99498.67
2019-06-20T01:23:13.955Z,99509.92
2019-06-20T01:25:44.181Z,99513.91
2019-06-20T01:28:14.437Z,99508.08
2019-06-20T01:30:44.661Z,99498.06
2019-06-20T01:33:15.032Z,99492.80
2019-06-20T01:35:45.907Z,99489.53
2019-06-20T01:38:16.121Z,99492.16
2019-06-20T01:40:46.334Z,99498.23
2019-06-20T01:43:16.620Z,99492.01
2019-06-20T01:45:46.831Z,99500.94
2019-06-20T01:48:17.027Z,99511.19
2019-06-20T01:50:47.253Z,99510.95
2019-06-20T01:53:17.466Z,99510.38
2019-06-20T01:55:47.685Z,99503.42
2019-06-20T01:58:17.877Z,99503.52
2019-06-20T02:00:49.799Z,99503.70
2019-06-20T02:03:20.309Z,99513.06
2019-06-20T02:05:50.811Z,99514.74
2019-06-20T02:08:21.011Z,99516.42
2019-06-20T02:10:51.282Z,99514.92
2019-06-20T02:13:21.636Z,99509.28
2019-06-20T02:15:51.871Z,99517.25
2019-06-20T02:18:22.056Z,99516.36
2019-06-20T02:20:54.092Z,99520.95
2019-06-20T02:23:24.275Z,99519.72
2019-06-20T02:25:54.485Z,99524.66
2019-06-20T02:28:24.690Z,99535.24
2019-06-20T02:30:54.898Z,99536.59
2019-06-20T02:33:25.179Z,99538.09
2019-06-20T02:35:55.372Z,99535.92
2019-06-20T02:38:25.632Z,99539.17
2019-06-20T02:40:55.836Z,99534.72
2019-06-20T02:43:26.053Z,99541.09
2019-06-20T02:45:56.260Z,99544.29
2019-06-20T02:48:26.478Z,99551.69
2019-06-20T02:50:56.678Z,99552.53
2019-06-20T02:53:26.887Z,99559.08
2019-06-20T02:55:57.088Z,99561.64
2019-06-20T02:58:27.309Z,99571.03
2019-06-20T03:00:59.324Z,99571.80
2019-06-20T03:03:29.786Z,99579.20
2019-06-20T03:05:59.984Z,99577.20
2019-06-20T03:08:30.220Z,99580.84
2019-06-20T03:11:00.414Z,99580.11
2019-06-20T03:13:30.651Z,99585.04
2019-06-20T03:16:00.898Z,99584.13
2019-06-20T03:18:31.122Z,99587.27
2019-06-20T03:21:01.309Z,99587.06
2019-06-20T03:23:31.538Z,99590.16
2019-06-20T03:26:01.750Z,99594.64
2019-06-20T03:28:31.970Z,99602.84
2019-06-20T03:31:02.164Z,99609.88
2019-06-20T03:33:32.377Z,99606.17
2019-06-20T03:36:02.593Z,99610.66
2019-06-20T03:38:32.811Z,99616.36
2019-06-20T03:41:03.025Z,99620.34
2019-06-20T03:43:33.263Z,99618.59
2019-06-20T03:46:03.462Z,99617.23
2019-06-20T03:48:33.709Z,99617.79
2019-06-20T03:51:03.938Z,99611.19
2019-06-20T03:53:34.142Z,99611.45
2019-06-20T03:56:04.376Z,99610.55
2019-06-20T03:58:34.637Z,99608.70
2019-06-20T04:01:04.863Z,99608.70
2019-06-20T04:03:35.058Z,99607.03
2019-06-20T04:06:05.283Z,99606.73
2019-06-20T04:08:35.464Z,99610.48
2019-06-20T04:11:06.745Z,99611.50
2019-06-20T04:13:36.968Z,99609.80
2019-06-20T04:16:09.047Z,99606.71
2019-06-20T04:18:40.313Z,99605.80
2019-06-20T04:21:10.523Z,99608.33
2019-06-20T04:23:40.721Z,99607.77
2019-06-20T04:26:10.926Z,99608.73
2019-06-20T04:28:41.109Z,99607.39
2019-06-20T04:31:11.525Z,99608.22
2019-06-20T04:33:41.796Z,99607.55
2019-06-20T04:36:12.019Z,99609.00
2019-06-20T04:38:42.217Z,99611.70
2019-06-20T04:41:12.438Z,99609.52
2019-06-20T04:43:42.708Z,99618.55
2019-06-20T04:46:14.565Z,99617.77
2019-06-20T04:48:44.771Z,99628.31
2019-06-20T04:51:15.044Z,99623.72
2019-06-20T04:53:45.241Z,99624.70
2019-06-20T04:56:15.468Z,99622.89
2019-06-20T04:58:45.725Z,99626.02
2019-06-20T05:01:15.949Z,99625.58
2019-06-20T05:03:46.506Z,99622.95
2019-06-20T05:06:16.710Z,99623.47
2019-06-20T05:08:46.929Z,99619.96
2019-06-20T05:11:17.187Z,99623.56
2019-06-20T05:13:47.583Z,99628.44
2019-06-20T05:16:17.754Z,99629.66
2019-06-20T05:18:47.986Z,99630.50
2019-06-20T05:21:18.269Z,99626.08
2019-06-20T05:23:48.476Z,99631.61
2019-06-20T05:26:18.817Z,99628.33
2019-06-20T05:28:49.028Z,99628.23
2019-06-20T05:31:19.216Z,99626.23
2019-06-20T05:33:49.506Z,99625.83
2019-06-20T05:36:19.690Z,99627.18
2019-06-20T05:38:49.952Z,99634.55
2019-06-20T05:41:20.193Z,99631.46
2019-06-20T05:43:50.460Z,99630.38
2019-06-20T05:46:20.715Z,99629.39
2019-06-20T05:48:50.943Z,99633.16
2019-06-20T05:51:21.219Z,99638.73
2019-06-20T05:53:51.446Z,99636.02
2019-06-20T05:56:21.656Z,99631.23
2019-06-20T05:58:51.905Z,99632.94
2019-06-20T06:01:22.153Z,99631.05
2019-06-20T06:03:52.411Z,99629.19
2019-06-20T06:06:22.676Z,99627.86
2019-06-20T06:08:52.900Z,99613.73
2019-06-20T06:11:23.579Z,99621.39
2019-06-20T06:13:53.779Z,99613.14
2019-06-20T06:16:27.348Z,99609.64
2019-06-20T06:18:55.936Z,99615.91
2019-06-20T06:21:26.134Z,99614.86
2019-06-20T06:23:56.451Z,99615.20
2019-06-20T06:26:26.700Z,99613.15
2019-06-20T06:28:56.931Z,99614.41
2019-06-20T06:31:27.123Z,99620.73
2019-06-20T06:33:57.365Z,99623.72
2019-06-20T06:36:30.520Z,99624.92
2019-06-20T06:39:00.810Z,99629.10
2019-06-20T06:41:32.649Z,99631.78
2019-06-20T06:44:03.919Z,99632.27
2019-06-20T06:46:44.962Z,99631.48
2019-06-20T06:49:07.098Z,99628.17
2019-06-20T06:51:38.297Z,99628.95
2019-06-20T06:54:08.576Z,99638.90
2019-06-20T06:56:38.892Z,99634.19
2019-06-20T06:59:09.081Z,99636.95
2019-06-20T07:01:39.516Z,99641.39
2019-06-20T07:04:09.980Z,99636.41
2019-06-20T07:06:40.219Z,99638.41
2019-06-20T07:09:10.509Z,99640.16
2019-06-20T07:11:40.721Z,99634.50
2019-06-20T07:14:10.919Z,99637.71
2019-06-20T07:16:41.213Z,99646.92
2019-06-20T07:19:12.609Z,99646.47
2019-06-20T07:21:42.916Z,99642.75
2019-06-20T07:24:32.614Z,99646.08
2019-06-20T07:27:02.829Z,99646.80
2019-06-20T07:29:33.090Z,99648.20
2019-06-20T07:32:03.312Z,99647.76
2019-06-20T07:34:33.619Z,99649.67
2019-06-20T07:37:03.902Z,99647.48
2019-06-20T07:39:34.103Z,99648.04
2019-06-20T07:42:04.329Z,99647.20
2019-06-20T07:44:34.511Z,99648.98
2019-06-20T07:47:17.115Z,99642.64
2019-06-20T07:49:37.696Z,99639.73
2019-06-20T07:52:07.926Z,99639.20
2019-06-20T07:54:38.125Z,99631.64
2019-06-20T07:57:08.357Z,99633.66
2019-06-20T07:59:38.555Z,99636.92
2019-06-20T08:02:08.777Z,99637.64
2019-06-20T08:04:40.058Z,99636.42
2019-06-20T08:07:11.712Z,99641.36
2019-06-20T08:09:45.080Z,99649.15
2019-06-20T08:12:13.830Z,99649.20
2019-06-20T08:14:44.020Z,99650.91
2019-06-20T08:17:14.243Z,99648.30
2019-06-20T08:19:44.431Z,99651.23
2019-06-20T08:22:15.724Z,99647.02
2019-06-20T08:24:45.959Z,99649.97
2019-06-20T08:27:16.168Z,99647.47
2019-06-20T08:29:46.363Z,99644.81
2019-06-20T08:32:16.596Z,99644.96
2019-06-20T08:34:46.796Z,99645.13
2019-06-20T08:37:17.028Z,99637.62
2019-06-20T08:39:47.208Z,99641.90
2019-06-20T08:42:17.459Z,99640.38
2019-06-20T08:44:47.684Z,99639.64
2019-06-20T08:47:17.873Z,99635.71
2019-06-20T08:49:48.114Z,99638.01
2019-06-20T08:52:18.316Z,99638.75
2019-06-20T08:54:48.610Z,99639.77
2019-06-20T08:57:18.803Z,99639.78
2019-06-20T08:59:49.036Z,99639.44
2019-06-20T09:02:19.300Z,99634.73
2019-06-20T09:04:49.525Z,99630.30
2019-06-20T09:07:19.720Z,99628.00
2019-06-20T09:09:50.039Z,99629.07
2019-06-20T09:12:20.307Z,99632.60
2019-06-20T09:14:50.517Z,99632.73
2019-06-20T09:17:20.724Z,99631.25
2019-06-20T09:19:51.720Z,99625.23
2019-06-20T09:22:23.018Z,99620.09
2019-06-20T09:24:53.692Z,99622.99
2019-06-20T09:27:25.224Z,99622.99
2019-06-20T09:29:56.245Z,99630.30
2019-06-20T09:32:26.526Z,99638.10
2019-06-20T09:34:56.808Z,99633.66
2019-06-20T09:37:27.007Z,99635.67
2019-06-20T09:39:57.303Z,99648.47
2019-06-20T09:42:27.509Z,99645.42
2019-06-20T09:44:58.443Z,99648.16
2019-06-20T09:47:28.774Z,99648.33
2019-06-20T09:50:00.196Z,99650.99
2019-06-20T09:52:30.499Z,99640.00
2019-06-20T09:55:01.937Z,99629.92
2019-06-20T09:57:32.110Z,99636.23
2019-06-20T10:00:09.363Z,99639.38
2019-06-20T10:02:34.533Z,99641.11
2019-06-20T10:05:09.108Z,99637.64
2019-06-20T10:07:39.375Z,99647.45
2019-06-20T10:10:11.087Z,99649.00
2019-06-20T10:12:41.361Z,99645.94
2019-06-20T10:15:21.617Z,99654.06
2019-06-20T10:17:52.043Z,99655.20
2019-06-20T10:20:22.855Z,99652.92
2019-06-20T10:22:53.792Z,99647.11
2019-06-20T10:25:24.267Z,99640.14
2019-06-20T10:27:54.539Z,99634.86
2019-06-20T10:30:25.652Z,99629.52
2019-06-20T10:32:57.558Z,99627.82
2019-06-20T10:35:27.841Z,99637.08
2019-06-20T10:37:58.073Z,99662.92
2019-06-20T10:40:28.294Z,99689.39
2019-06-20T10:42:58.470Z,99703.94
2019-06-20T10:45:28.760Z,99721.40
2019-06-20T10:47:59.128Z,99727.47
2019-06-20T10:50:29.366Z,99745.48
2019-06-20T10:52:59.566Z,99747.89
2019-06-20T10:55:29.774Z,99720.30
2019-06-20T10:58:00.117Z,99723.73
2019-06-20T11:00:31.879Z,99727.61
2019-06-20T11:03:02.404Z,99719.34
2019-06-20T11:05:32.604Z,99716.31
2019-06-20T11:08:02.798Z,99721.66
2019-06-20T11:10:33.016Z,99719.86
2019-06-20T11:13:03.218Z,99729.38
2019-06-20T11:15:33.497Z,99725.67
2019-06-20T11:18:03.789Z,99726.84
2019-06-20T11:20:33.988Z,99723.71
2019-06-20T11:23:04.176Z,99721.69
2019-06-20T11:25:34.377Z,99719.66
2019-06-20T11:28:04.591Z,99723.59
2019-06-20T11:30:48.013Z,99722.30
2019-06-20T11:33:06.887Z,99727.64
2019-06-20T11:35:37.813Z,99727.19
2019-06-20T11:38:08.478Z,99722.14
2019-06-20T11:40:39.672Z,99719.64
2019-06-20T11:43:09.979Z,99709.28
2019-06-20T11:45:40.903Z,99709.98
2019-06-20T11:48:11.245Z,99709.73
2019-06-20T11:50:42.395Z,99699.09
2019-06-20T11:53:12.730Z,99700.60
2019-06-20T11:55:43.390Z,99692.88
2019-06-20T11:58:13.606Z,99689.47
2019-06-20T12:00:43.864Z,99689.02
2019-06-20T12:03:14.068Z,99673.14
2019-06-20T12:05:47.187Z,99659.49
2019-06-20T12:08:17.608Z,99649.22
2019-06-20T12:10:47.807Z,99654.59
2019-06-20T12:13:18.026Z,99653.77
2019-06-20T12:15:49.048Z,99652.57
2019-06-20T12:18:19.417Z,99652.55
2019-06-20T12:20:49.621Z,99650.31
2019-06-20T12:23:19.836Z,99643.16
2019-06-20T12:25:50.022Z,99644.20
2019-06-20T12:28:20.310Z,99636.31
2019-06-20T12:30:50.544Z,99642.16
2019-06-20T12:33:21.881Z,99637.19
2019-06-20T12:35:52.065Z,99635.39
2019-06-20T12:38:22.297Z,99644.05
2019-06-20T12:40:52.497Z,99638.71
2019-06-20T12:43:22.778Z,99633.84
2019-06-20T12:45:53.043Z,99634.73
2019-06-20T12:48:23.276Z,99639.11
2019-06-20T12:50:53.475Z,99639.95
2019-06-20T12:53:23.706Z,99631.92
2019-06-20T12:55:53.906Z,99630.23
2019-06-20T12:58:24.127Z,99631.30
2019-06-20T13:00:54.319Z,99638.91
2019-06-20T13:03:24.547Z,99643.28
2019-06-20T13:05:54.740Z,99642.50
2019-06-20T13:08:24.963Z,99641.67
2019-06-20T13:10:55.148Z,99647.39
2019-06-20T13:13:25.346Z,99642.97
2019-06-20T13:15:55.535Z,99643.19
2019-06-20T13:18:25.754Z,99639.91
2019-06-20T13:20:55.934Z,99638.47
2019-06-20T13:23:26.296Z,99630.38
2019-06-20T13:25:56.510Z,99631.22
2019-06-20T13:28:27.019Z,99628.23
2019-06-20T13:30:57.699Z,99625.81
2019-06-20T13:33:28.329Z,99612.20
2019-06-20T13:35:58.597Z,99617.50
2019-06-20T13:38:29.454Z,99624.74
2019-06-20T13:40:59.885Z,99626.19
2019-06-20T13:43:30.377Z,99633.38
2019-06-20T13:46:00.576Z,99630.28
2019-06-20T13:48:30.942Z,99616.10
2019-06-20T13:51:01.147Z,99612.22
2019-06-20T13:53:31.686Z,99616.50
2019-06-20T13:56:02.039Z,99611.87
2019-06-20T13:58:32.436Z,99605.25
2019-06-20T14:01:02.864Z,99613.84
2019-06-20T14:03:34.296Z,99613.80
2019-06-20T14:06:04.617Z,99618.47
2019-06-20T14:08:35.063Z,99606.69
2019-06-20T14:11:05.305Z,99602.77
2019-06-20T14:13:35.630Z,99605.56
2019-06-20T14:16:06.066Z,99611.59
2019-06-20T14:18:36.248Z,99597.10
2019-06-20T14:21:06.556Z,99601.36
2019-06-20T14:23:36.844Z,99592.30
2019-06-20T14:26:07.221Z,99596.78
2019-06-20T14:28:37.801Z,99603.16
2019-06-20T14:31:08.080Z,99600.16
2019-06-20T14:33:38.451Z,99606.00
2019-06-20T14:36:08.745Z,99609.55
2019-06-20T14:38:39.016Z,99605.91
2019-06-20T14:41:09.316Z,99621.88
2019-06-20T14:43:39.648Z,99613.64
2019-06-20T14:46:10.013Z,99609.78
2019-06-20T14:48:40.368Z,99612.52
2019-06-20T14:51:10.978Z,99614.49
2019-06-20T14:53:41.320Z,99614.35
2019-06-20T14:56:13.554Z,99620.53
2019-06-20T14:58:44.837Z,99606.97
2019-06-20T15:01:16.277Z,99616.02
2019-06-20T15:03:47.405Z,99625.09
2019-06-20T15:06:18.489Z,99627.63
2019-06-20T15:08:49.527Z,99627.69
2019-06-20T15:11:20.888Z,99625.94
2019-06-20T15:13:51.405Z,99629.44
2019-06-20T15:16:21.795Z,99621.63
2019-06-20T15:18:54.074Z,99615.45
2019-06-20T15:21:24.291Z,99609.92
2019-06-20T15:23:54.517Z,99610.17
2019-06-20T15:26:24.856Z,99609.60
2019-06-20T15:28:56.953Z,99610.11
2019-06-20T15:31:27.198Z,99611.23
2019-06-20T15:33:57.575Z,99606.77
2019-06-20T15:36:28.287Z,99606.21
2019-06-20T15:38:58.529Z,99606.16
2019-06-20T15:41:28.867Z,99608.53
2019-06-20T15:43:59.119Z,99605.13
2019-06-20T15:46:30.572Z,99605.77
2019-06-20T15:49:12.875Z,99612.75
2019-06-20T15:51:33.041Z,99624.71
2019-06-20T15:54:03.317Z,99625.81
2019-06-20T15:56:33.862Z,99631.09
2019-06-20T15:59:04.276Z,99634.02
2019-06-20T16:01:34.602Z,99632.25
2019-06-20T16:04:04.890Z,99631.89
2019-06-20T16:06:35.086Z,99632.91
2019-06-20T16:09:09.091Z,99630.81
2019-06-20T16:11:39.403Z,99631.44
2019-06-20T16:14:09.635Z,99624.08
2019-06-20T16:16:39.834Z,99626.65
2019-06-20T16:19:10.125Z,99624.90
2019-06-20T16:21:40.396Z,99626.28
2019-06-20T16:24:12.663Z,99627.19
2019-06-20T16:26:42.511Z,99623.23
2019-06-20T16:29:12.731Z,99617.73
2019-06-20T16:31:42.933Z,99616.36
2019-06-20T16:34:13.134Z,99616.38
2019-06-20T16:36:44.409Z,99611.87
2019-06-20T16:39:14.621Z,99615.65
2019-06-20T16:41:44.837Z,99617.14
2019-06-20T16:44:15.082Z,99617.38
2019-06-20T16:46:45.292Z,99616.78
2019-06-20T16:49:15.517Z,99618.41
2019-06-20T16:51:46.793Z,99616.27
2019-06-20T16:54:17.079Z,99620.00
2019-06-20T16:56:47.271Z,99619.56
2019-06-20T16:59:17.475Z,99613.77
2019-06-20T17:01:47.682Z,99615.00
2019-06-20T17:04:18.160Z,99616.55
2019-06-20T17:06:48.372Z,99619.46
2019-06-20T17:09:18.583Z,99616.08
2019-06-20T17:11:48.768Z,99622.28
2019-06-20T17:14:18.982Z,99617.97
2019-06-20T17:16:49.191Z,99624.90
2019-06-20T17:19:19.416Z,99628.80
2019-06-20T17:21:49.615Z,99630.56
2019-06-20T17:24:20.924Z,99632.06
2019-06-20T17:26:51.127Z,99641.51
2019-06-20T17:29:21.356Z,99649.59
2019-06-20T17:31:51.569Z,99652.22
2019-06-20T17:34:21.956Z,99653.03
2019-06-20T17:36:52.170Z,99659.34
2019-06-20T17:39:22.398Z,99664.10
2019-06-20T17:41:55.558Z,99660.06
2019-06-20T17:44:27.460Z,99659.95
2019-06-20T17:46:56.557Z,99654.84
2019-06-20T17:49:26.831Z,99657.91
2019-06-20T17:51:57.104Z,99657.60
2019-06-20T17:54:27.340Z,99658.36
2019-06-20T17:56:57.595Z,99656.99
2019-06-20T17:59:27.865Z,99656.90
2019-06-20T18:01:58.049Z,99665.25
2019-06-20T18:04:28.265Z,99672.03
2019-06-20T18:06:58.457Z,99686.48
2019-06-20T18:09:28.722Z,99704.41
2019-06-20T18:11:58.916Z,99695.20
2019-06-20T18:14:29.153Z,99695.39
2019-06-20T18:16:59.438Z,99693.45
2019-06-20T18:19:29.695Z,99698.09
2019-06-20T18:22:12.779Z,99693.19
2019-06-20T18:24:46.402Z,99697.34
2019-06-20T18:27:16.595Z,99707.27
2019-06-20T18:29:46.814Z,99700.00
2019-06-20T18:32:20.078Z,99707.04
2019-06-20T18:35:01.457Z,99710.30
2019-06-20T18:37:31.580Z,99717.75
2019-06-20T18:39:54.136Z,99718.10
2019-06-20T18:42:24.342Z,99721.59
2019-06-20T18:44:54.554Z,99721.48
2019-06-20T18:47:24.757Z,99726.72
2019-06-20T18:49:54.986Z,99729.77
2019-06-20T18:52:25.183Z,99737.95
2019-06-20T18:54:55.420Z,99742.39
2019-06-20T18:57:25.655Z,99745.05
2019-06-20T18:59:55.852Z,99752.33
2019-06-20T19:02:26.088Z,99756.67
2019-06-20T19:04:56.285Z,99752.12
2019-06-20T19:07:26.526Z,99758.94
2019-06-20T19:09:56.741Z,99765.63
2019-06-20T19:12:26.951Z,99770.64
2019-06-20T19:14:57.153Z,99777.83
2019-06-20T19:17:27.387Z,99776.75
2019-06-20T19:19:57.573Z,99778.22
2019-06-20T19:22:27.794Z,99783.57
2019-06-20T19:24:57.992Z,99792.02
2019-06-20T19:27:42.124Z,99797.30
2019-06-20T19:30:00.110Z,99801.91
2019-06-20T19:32:30.412Z,99810.02
2019-06-20T19:35:02.529Z,99821.83
2019-06-20T19:37:32.521Z,99830.77
2019-06-20T19:40:02.817Z,99835.38
2019-06-20T19:42:33.268Z,99842.91
2019-06-20T19:45:09.325Z,99844.54
2019-06-20T19:47:39.852Z,99847.90
2019-06-20T19:50:10.125Z,99848.40
2019-06-20T19:52:40.578Z,99852.34
2019-06-20T19:55:10.927Z,99855.53
2019-06-20T19:57:41.136Z,99857.77
2019-06-20T20:00:12.412Z,99859.80
2019-06-20T20:02:43.707Z,99859.83
2019-06-20T20:05:19.428Z,99866.54
2019-06-20T20:07:46.218Z,99869.11
2019-06-20T20:10:19.698Z,99876.35
2019-06-20T20:12:49.922Z,99880.84
2019-06-20T20:15:20.280Z,99884.94
2019-06-20T20:17:50.498Z,99890.50
2019-06-20T20:20:21.165Z,99890.00
2019-06-20T20:22:51.400Z,99889.69
2019-06-20T20:25:21.584Z,99889.29
2019-06-20T20:27:52.877Z,99884.88
2019-06-20T20:30:23.100Z,99885.72
2019-06-20T20:32:53.392Z,99890.03
2019-06-20T20:35:34.840Z,99892.33
2019-06-20T20:37:55.589Z,99895.18
2019-06-20T20:40:25.843Z,99897.50
2019-06-20T20:42:56.074Z,99896.48
2019-06-20T20:45:26.331Z,99897.22
2019-06-20T20:47:56.593Z,99896.19
2019-06-20T20:50:26.799Z,99899.39
2019-06-20T20:52:57.052Z,99903.41
2019-06-20T20:55:27.276Z,99898.67
2019-06-20T20:57:57.472Z,99900.34
2019-06-20T21:00:41.617Z,99905.44
2019-06-20T21:03:11.841Z,99908.91
2019-06-20T21:05:51.003Z,99912.77
2019-06-20T21:08:13.969Z,99911.69
2019-06-20T21:10:45.112Z,99914.02
2019-06-20T21:13:15.351Z,99918.78
2019-06-20T21:15:45.630Z,99918.45
2019-06-20T21:18:19.556Z,99919.56
2019-06-20T21:20:49.748Z,99920.61
2019-06-20T21:23:19.983Z,99918.34
2019-06-20T21:25:50.269Z,99920.86
2019-06-20T21:28:20.501Z,99925.06
2019-06-20T21:30:50.716Z,99926.09
2019-06-20T21:33:20.938Z,99928.55
2019-06-20T21:36:06.956Z,99928.95
2019-06-20T21:38:24.213Z,99926.81
2019-06-20T21:40:54.411Z,99928.34
2019-06-20T21:43:24.640Z,99930.10
2019-06-20T21:45:54.857Z,99933.13
2019-06-20T21:48:25.051Z,99937.04
2019-06-20T21:50:55.296Z,99941.38
2019-06-20T21:53:25.581Z,99940.91
2019-06-20T21:55:55.822Z,99942.85
2019-06-20T21:58:26.018Z,99944.62
2019-06-20T22:00:57.518Z,99944.83
2019-06-20T22:03:28.013Z,99945.64
2019-06-20T22:05:58.247Z,99953.19
2019-06-20T22:08:28.516Z,99953.67
2019-06-20T22:10:58.743Z,99954.32
2019-06-20T22:13:28.936Z,99953.54
2019-06-20T22:15:59.152Z,99958.58
2019-06-20T22:18:29.337Z,99964.27
2019-06-20T22:20:59.571Z,99975.16
2019-06-20T22:23:29.762Z,99973.23
2019-06-20T22:25:59.993Z,99971.39
2019-06-20T22:28:30.178Z,99981.67
2019-06-20T22:31:00.396Z,99980.11
2019-06-20T22:33:30.665Z,99980.48
2019-06-20T22:36:00.893Z,99981.49
2019-06-20T22:38:31.094Z,99981.06
2019-06-20T22:41:01.588Z,99978.89
2019-06-20T22:43:31.860Z,99976.59
2019-06-20T22:46:02.086Z,99983.05
2019-06-20T22:48:32.296Z,99984.00
2019-06-20T22:51:02.522Z,99985.88
2019-06-20T22:53:32.706Z,99983.44
2019-06-20T22:56:03.006Z,99985.67
2019-06-20T22:58:33.210Z,99991.05
2019-06-20T23:01:03.434Z,99990.89
2019-06-20T23:03:33.643Z,99992.77
2019-06-20T23:06:03.931Z,99991.92
2019-06-20T23:08:34.113Z,99989.81
2019-06-20T23:11:04.354Z,99993.08
2019-06-20T23:13:34.624Z,99996.39
2019-06-20T23:16:04.847Z,99999.73
2019-06-20T23:18:38.050Z,99998.97
2019-06-20T23:21:08.353Z,100009.12
2019-06-20T23:23:38.550Z,100005.88
2019-06-20T23:26:10.429Z,100006.41
2019-06-20T23:28:41.701Z,100000.73
2019-06-20T23:31:11.932Z,99998.41
2019-06-20T23:33:42.137Z,100003.48
2019-06-20T23:36:12.359Z,100001.03
2019-06-20T23:38:42.583Z,99999.48
2019-06-20T23:41:12.775Z,99997.55
2019-06-20T23:43:43.008Z,99995.52
2019-06-20T23:46:13.204Z,99996.41
2019-06-20T23:48:43.468Z,100000.95
2019-06-20T23:51:24.927Z,99993.79
2019-06-20T23:53:45.710Z,99992.75
2019-06-20T23:56:15.900Z,99999.20
2019-06-20T23:58:46.118Z,100002.38
